createdAt,value
2023-02-07T00:01:41.549Z,101894.83
2023-02-07T00:04:10.458Z,101892.54
2023-02-07T00:06:39.281Z,101891.31
2023-02-07T00:09:09.417Z,101892.52
2023-02-07T00:11:39.045Z,101894.81
2023-02-07T00:14:09.468Z,101895.21
2023-02-07T00:16:39.328Z,101894.36
2023-02-07T00:19:08.508Z,101899.81
2023-02-07T00:21:37.624Z,101899.77
2023-02-07T00:24:07.198Z,101900.73
2023-02-07T00:26:36.132Z,101900.71
2023-02-07T00:29:05.145Z,101898.39
2023-02-07T00:31:35.851Z,101894.59
2023-02-07T00:34:07.276Z,101898.88
2023-02-07T00:36:37.517Z,101896.23
2023-02-07T00:39:10.990Z,101889.69
2023-02-07T00:41:40.830Z,101887.42
2023-02-07T00:44:09.618Z,101886.66
2023-02-07T00:46:38.683Z,101883.65
2023-02-07T00:49:07.612Z,101881.63
2023-02-07T00:51:35.914Z,101880.65
2023-02-07T00:54:04.783Z,101877.71
2023-02-07T00:56:35.343Z,101876.60
2023-02-07T00:59:03.856Z,101868.77
2023-02-07T01:01:32.402Z,101868.30
2023-02-07T01:04:01.407Z,101865.55
2023-02-07T01:06:29.863Z,101860.15
2023-02-07T01:08:59.412Z,101857.08
2023-02-07T01:11:28.595Z,101849.27
2023-02-07T01:14:00.614Z,101844.54
2023-02-07T01:16:35.846Z,101841.27
2023-02-07T01:19:07.606Z,101843.66
2023-02-07T01:21:37.063Z,101836.65
2023-02-07T01:24:07.137Z,101838.21
2023-02-07T01:26:38.204Z,101841.36
2023-02-07T01:29:07.233Z,101838.67
2023-02-07T01:31:36.396Z,101842.02
2023-02-07T01:34:06.141Z,101839.73
2023-02-07T01:36:35.471Z,101840.75
2023-02-07T01:39:04.527Z,101837.08
2023-02-07T01:41:33.189Z,101831.97
2023-02-07T01:44:08.047Z,101830.38
2023-02-07T01:46:36.995Z,101821.75
2023-02-07T01:49:10.085Z,101819.64
2023-02-07T01:51:45.145Z,101821.61
2023-02-07T01:54:15.585Z,101817.70
2023-02-07T01:56:51.383Z,101814.59
2023-02-07T01:59:20.754Z,101813.66
2023-02-07T02:01:49.293Z,101810.64
2023-02-07T02:04:17.822Z,101802.53
2023-02-07T02:06:46.585Z,101800.70
2023-02-07T02:09:16.630Z,101800.61
2023-02-07T02:12:05.012Z,101796.98
2023-02-07T02:15:11.541Z,101797.41
2023-02-07T02:17:42.537Z,101796.09
2023-02-07T02:20:39.442Z,101794.08
2023-02-07T02:23:44.777Z,101785.90
2023-02-07T02:26:28.213Z,101786.76
2023-02-07T02:29:02.278Z,101786.53
2023-02-07T02:31:46.924Z,101785.27
2023-02-07T02:34:41.448Z,101778.90
2023-02-07T02:37:29.416Z,101783.98
2023-02-07T02:40:23.401Z,101782.50
2023-02-07T02:43:08.154Z,101783.94
2023-02-07T02:45:46.850Z,101780.96
2023-02-07T02:48:17.533Z,101779.11
2023-02-07T02:50:48.655Z,101775.83
2023-02-07T02:53:17.188Z,101778.39
2023-02-07T02:55:51.461Z,101779.84
2023-02-07T02:58:44.609Z,101783.90
2023-02-07T03:01:25.417Z,101787.67
2023-02-07T03:03:54.573Z,101787.17
2023-02-07T03:06:45.267Z,101786.69
2023-02-07T03:09:22.721Z,101785.05
2023-02-07T03:12:05.778Z,101779.54
2023-02-07T03:14:44.344Z,101770.68
2023-02-07T03:17:30.267Z,101770.80
2023-02-07T03:20:04.336Z,101769.87
2023-02-07T03:22:35.116Z,101769.89
2023-02-07T03:25:05.760Z,101766.18
2023-02-07T03:27:36.606Z,101763.98
2023-02-07T03:30:10.476Z,101762.48
2023-02-07T03:32:42.870Z,101762.02
2023-02-07T03:35:56.548Z,101764.20
2023-02-07T03:38:25.248Z,101762.42
2023-02-07T03:40:58.837Z,101755.36
2023-02-07T03:43:30.798Z,101755.89
2023-02-07T03:46:00.309Z,101753.83
2023-02-07T03:48:28.501Z,101750.55
2023-02-07T03:50:57.048Z,101748.95
2023-02-07T03:53:25.906Z,101751.41
2023-02-07T03:55:54.189Z,101747.55
2023-02-07T03:58:22.798Z,101747.39
2023-02-07T04:00:51.303Z,101748.80
2023-02-07T04:03:20.531Z,101745.12
2023-02-07T04:05:49.007Z,101742.48
2023-02-07T04:08:17.788Z,101743.59
2023-02-07T04:10:57.533Z,101738.70
2023-02-07T04:13:26.277Z,101739.11
2023-02-07T04:15:54.726Z,101743.70
2023-02-07T04:18:24.251Z,101747.93
2023-02-07T04:21:00.402Z,101750.71
2023-02-07T04:23:29.324Z,101745.61
2023-02-07T04:25:58.600Z,101740.31
2023-02-07T04:28:27.138Z,101741.71
2023-02-07T04:30:56.176Z,101742.66
2023-02-07T04:33:25.150Z,101740.10
2023-02-07T04:35:59.399Z,101739.41
2023-02-07T04:38:29.354Z,101738.74
2023-02-07T04:41:03.753Z,101740.89
2023-02-07T04:43:34.516Z,101738.50
2023-02-07T04:46:05.776Z,101737.98
2023-02-07T04:48:35.835Z,101736.44
2023-02-07T04:51:06.172Z,101736.30
2023-02-07T04:53:35.876Z,101734.89
2023-02-07T04:56:05.224Z,101735.58
2023-02-07T04:58:34.986Z,101727.66
2023-02-07T05:01:03.336Z,101728.02
2023-02-07T05:03:31.735Z,101724.34
2023-02-07T05:06:00.447Z,101722.42
2023-02-07T05:08:29.745Z,101722.59
2023-02-07T05:10:57.974Z,101731.23
2023-02-07T05:13:27.208Z,101730.94
2023-02-07T05:15:55.461Z,101731.46
2023-02-07T05:18:24.222Z,101725.16
2023-02-07T05:20:53.902Z,101721.84
2023-02-07T05:25:39.404Z,101726.86
2023-02-07T05:28:08.318Z,101723.91
2023-02-07T05:30:37.551Z,101726.58
2023-02-07T05:33:05.885Z,101728.56
2023-02-07T05:35:37.621Z,101728.29
2023-02-07T05:38:10.811Z,101724.29
2023-02-07T05:40:40.742Z,101722.40
2023-02-07T05:43:10.799Z,101722.52
2023-02-07T05:45:39.285Z,101712.38
2023-02-07T05:48:08.145Z,101713.13
2023-02-07T05:50:37.301Z,101710.73
2023-02-07T05:53:06.600Z,101707.45
2023-02-07T05:55:35.500Z,101702.36
2023-02-07T05:58:05.650Z,101695.39
2023-02-07T06:00:34.084Z,101694.20
2023-02-07T06:03:02.441Z,101685.98
2023-02-07T06:05:32.211Z,101682.30
2023-02-07T06:08:00.960Z,101683.99
2023-02-07T06:10:29.980Z,101682.85
2023-02-07T06:12:58.388Z,101685.48
2023-02-07T06:15:26.716Z,101686.02
2023-02-07T06:17:55.523Z,101688.30
2023-02-07T06:20:23.885Z,101690.14
2023-02-07T06:22:52.145Z,101694.73
2023-02-07T06:25:21.705Z,101695.65
2023-02-07T06:27:50.752Z,101693.10
2023-02-07T06:30:19.653Z,101691.96
2023-02-07T06:32:48.269Z,101693.14
2023-02-07T06:35:17.690Z,101694.33
2023-02-07T06:37:46.465Z,101692.45
2023-02-07T06:40:14.728Z,101688.48
2023-02-07T06:42:45.450Z,101681.66
2023-02-07T06:45:13.986Z,101680.37
2023-02-07T06:47:42.805Z,101684.85
2023-02-07T06:50:11.274Z,101688.47
2023-02-07T06:52:39.999Z,101693.45
2023-02-07T06:55:08.753Z,101690.17
2023-02-07T06:57:37.481Z,101695.14
2023-02-07T07:00:06.737Z,101698.02
2023-02-07T07:02:35.429Z,101697.31
2023-02-07T07:05:04.154Z,101698.10
2023-02-07T07:07:33.817Z,101699.58
2023-02-07T07:10:02.653Z,101704.26
2023-02-07T07:12:30.998Z,101709.31
2023-02-07T07:15:00.066Z,101711.89
2023-02-07T07:17:29.596Z,101714.19
2023-02-07T07:19:58.786Z,101711.31
2023-02-07T07:22:28.048Z,101714.69
2023-02-07T07:24:57.570Z,101711.04
2023-02-07T07:27:27.134Z,101710.80
2023-02-07T07:29:56.400Z,101718.92
2023-02-07T07:32:33.942Z,101716.17
2023-02-07T07:35:04.998Z,101715.64
2023-02-07T07:37:34.095Z,101711.95
2023-02-07T07:40:04.311Z,101710.84
2023-02-07T07:42:33.108Z,101705.22
2023-02-07T07:45:02.000Z,101705.16
2023-02-07T07:47:31.839Z,101701.04
2023-02-07T07:50:00.645Z,101703.25
2023-02-07T07:52:29.445Z,101705.06
2023-02-07T07:54:58.901Z,101703.41
2023-02-07T07:57:28.347Z,101706.38
2023-02-07T07:59:57.799Z,101702.65
2023-02-07T08:02:26.350Z,101696.75
2023-02-07T08:04:54.718Z,101689.95
2023-02-07T08:07:23.588Z,101686.59
2023-02-07T08:09:53.517Z,101691.39
2023-02-07T08:12:22.440Z,101692.81
2023-02-07T08:14:50.697Z,101696.45
2023-02-07T08:17:20.052Z,101690.77
2023-02-07T08:19:49.429Z,101692.13
2023-02-07T08:22:17.674Z,101688.37
2023-02-07T08:24:47.485Z,101689.48
2023-02-07T08:27:16.521Z,101689.69
2023-02-07T08:29:44.798Z,101694.27
2023-02-07T08:32:14.912Z,101698.91
2023-02-07T08:34:44.644Z,101699.67
2023-02-07T08:37:14.193Z,101699.94
2023-02-07T08:39:43.218Z,101702.88
2023-02-07T08:42:12.102Z,101701.16
2023-02-07T08:44:41.005Z,101705.77
2023-02-07T08:47:09.409Z,101704.80
2023-02-07T08:49:39.125Z,101707.60
2023-02-07T08:52:09.737Z,101705.89
2023-02-07T08:54:39.674Z,101704.25
2023-02-07T08:57:08.797Z,101701.81
2023-02-07T08:59:38.910Z,101702.48
2023-02-07T09:02:08.826Z,101702.75
2023-02-07T09:04:37.886Z,101700.05
2023-02-07T09:07:06.768Z,101698.17
2023-02-07T09:09:35.542Z,101705.37
2023-02-07T09:12:04.019Z,101707.53
2023-02-07T09:14:33.118Z,101706.48
2023-02-07T09:17:02.788Z,101708.52
2023-02-07T09:19:33.743Z,101715.52
2023-02-07T09:22:04.158Z,101715.39
2023-02-07T09:24:33.693Z,101714.77
2023-02-07T09:27:03.625Z,101716.56
2023-02-07T09:29:33.230Z,101723.46
2023-02-07T09:32:02.739Z,101721.39
2023-02-07T09:34:33.979Z,101719.09
2023-02-07T09:37:03.443Z,101714.14
2023-02-07T09:39:31.664Z,101718.03
2023-02-07T09:42:08.746Z,101720.14
2023-02-07T09:45:01.269Z,101724.17
2023-02-07T09:47:32.918Z,101727.48
2023-02-07T09:50:08.629Z,101730.14
2023-02-07T09:52:46.587Z,101731.34
2023-02-07T09:55:21.733Z,101726.73
2023-02-07T09:58:04.030Z,101729.71
2023-02-07T10:00:37.310Z,101726.88
2023-02-07T10:03:22.386Z,101727.87
2023-02-07T10:06:03.543Z,101722.42
2023-02-07T10:08:40.772Z,101725.34
2023-02-07T10:11:38.596Z,101728.79
2023-02-07T10:14:18.290Z,101724.55
2023-02-07T10:17:05.733Z,101722.45
2023-02-07T10:19:38.588Z,101725.49
2023-02-07T10:22:46.788Z,101723.45
2023-02-07T10:25:34.635Z,101723.06
2023-02-07T10:28:06.997Z,101724.98
2023-02-07T10:30:39.281Z,101722.20
2023-02-07T10:33:16.746Z,101725.30
2023-02-07T10:35:47.061Z,101726.69
2023-02-07T10:38:42.086Z,101725.35
2023-02-07T10:41:16.811Z,101725.77
2023-02-07T10:43:47.762Z,101727.95
2023-02-07T10:46:19.203Z,101726.65
2023-02-07T10:48:48.800Z,101733.93
2023-02-07T10:51:44.144Z,101736.59
2023-02-07T10:54:16.244Z,101734.77
2023-02-07T10:56:51.725Z,101732.36
2023-02-07T10:59:43.577Z,101734.84
2023-02-07T11:02:31.257Z,101736.52
2023-02-07T11:05:20.957Z,101735.33
2023-02-07T11:08:17.779Z,101730.45
2023-02-07T11:10:46.981Z,101732.85
2023-02-07T11:13:18.787Z,101735.33
2023-02-07T11:15:54.861Z,101732.57
2023-02-07T11:18:28.265Z,101732.48
2023-02-07T11:20:57.213Z,101726.47
2023-02-07T11:23:26.441Z,101726.81
2023-02-07T11:25:56.694Z,101725.21
2023-02-07T11:28:31.064Z,101716.13
2023-02-07T11:31:08.059Z,101713.05
2023-02-07T11:33:37.633Z,101708.12
2023-02-07T11:36:10.565Z,101703.02
2023-02-07T11:38:49.020Z,101702.77
2023-02-07T11:41:23.450Z,101702.05
2023-02-07T11:43:58.173Z,101694.60
2023-02-07T11:46:31.659Z,101691.48
2023-02-07T11:49:00.757Z,101687.84
2023-02-07T11:51:31.790Z,101684.19
2023-02-07T11:54:03.760Z,101682.86
2023-02-07T11:56:50.403Z,101680.56
2023-02-07T11:59:22.524Z,101677.98
2023-02-07T12:01:58.254Z,101679.29
2023-02-07T12:04:39.033Z,101676.30
2023-02-07T12:07:47.345Z,101676.08
2023-02-07T12:10:33.016Z,101668.75
2023-02-07T12:13:13.995Z,101660.95
2023-02-07T12:15:49.551Z,101649.27
2023-02-07T12:18:49.184Z,101647.93
2023-02-07T12:21:26.600Z,101641.98
2023-02-07T12:24:00.683Z,101638.16
2023-02-07T12:26:51.961Z,101631.91
2023-02-07T12:29:23.292Z,101630.90
2023-02-07T12:32:20.413Z,101629.63
2023-02-07T12:35:00.664Z,101624.26
2023-02-07T12:37:57.584Z,101620.30
2023-02-07T12:40:53.846Z,101616.45
2023-02-07T12:43:28.416Z,101607.66
2023-02-07T12:46:01.195Z,101603.19
2023-02-07T12:48:48.230Z,101597.84
2023-02-07T12:51:22.501Z,101593.13
2023-02-07T12:54:18.059Z,101592.46
2023-02-07T12:56:58.665Z,101585.83
2023-02-07T12:59:33.525Z,101583.22
2023-02-07T13:02:24.886Z,101579.23
2023-02-07T13:05:12.383Z,101577.96
2023-02-07T13:08:19.618Z,101569.20
2023-02-07T13:11:07.090Z,101572.55
2023-02-07T13:13:53.993Z,101565.02
2023-02-07T13:16:28.798Z,101560.09
2023-02-07T13:19:03.903Z,101559.49
2023-02-07T13:21:56.346Z,101559.73
2023-02-07T13:24:28.068Z,101551.03
2023-02-07T13:27:02.270Z,101549.13
2023-02-07T13:29:35.186Z,101548.00
2023-02-07T13:32:08.734Z,101546.83
2023-02-07T13:34:46.321Z,101537.00
2023-02-07T13:37:18.016Z,101537.14
2023-02-07T13:39:49.858Z,101533.13
2023-02-07T13:42:35.107Z,101528.07
2023-02-07T13:45:52.833Z,101528.42
2023-02-07T13:48:50.314Z,101521.88
2023-02-07T13:52:10.936Z,101516.85
2023-02-07T13:54:56.105Z,101509.08
2023-02-07T13:57:36.570Z,101516.16
2023-02-07T14:00:19.538Z,101515.83
2023-02-07T14:02:53.302Z,101516.67
2023-02-07T14:05:27.806Z,101511.86
2023-02-07T14:08:18.367Z,101513.36
2023-02-07T14:10:57.535Z,101516.11
2023-02-07T14:13:31.758Z,101516.06
2023-02-07T14:16:12.589Z,101514.65
2023-02-07T14:18:45.405Z,101520.09
2023-02-07T14:21:20.033Z,101517.45
2023-02-07T14:24:19.424Z,101521.56
2023-02-07T14:27:00.597Z,101518.73
2023-02-07T14:29:29.686Z,101516.63
2023-02-07T14:32:01.343Z,101517.17
2023-02-07T14:34:32.863Z,101516.09
2023-02-07T14:37:21.221Z,101512.10
2023-02-07T14:39:50.444Z,101511.44
2023-02-07T14:42:22.717Z,101513.05
2023-02-07T14:44:58.668Z,101512.95
2023-02-07T14:47:29.594Z,101508.04
2023-02-07T14:50:01.252Z,101511.96
2023-02-07T14:52:33.355Z,101508.77
2023-02-07T14:55:26.250Z,101512.36
2023-02-07T14:58:01.163Z,101508.21
2023-02-07T15:00:48.325Z,101506.51
2023-02-07T15:03:18.658Z,101510.02
2023-02-07T15:05:54.336Z,101507.83
2023-02-07T15:08:24.987Z,101500.11
2023-02-07T15:11:11.226Z,101499.24
2023-02-07T15:13:44.583Z,101498.22
2023-02-07T15:16:21.521Z,101502.02
2023-02-07T15:19:02.926Z,101504.08
2023-02-07T15:21:44.272Z,101507.30
2023-02-07T15:24:51.940Z,101506.57
2023-02-07T15:27:29.426Z,101508.73
2023-02-07T15:30:02.058Z,101510.06
2023-02-07T15:32:33.624Z,101507.85
2023-02-07T15:35:17.627Z,101505.52
2023-02-07T15:37:47.019Z,101515.17
2023-02-07T15:40:19.614Z,101508.44
2023-02-07T15:42:53.368Z,101513.65
2023-02-07T15:45:29.395Z,101512.89
2023-02-07T15:48:07.119Z,101510.48
2023-02-07T15:50:38.030Z,101507.90
2023-02-07T15:53:08.418Z,101515.06
2023-02-07T15:55:46.838Z,101512.11
2023-02-07T15:58:28.953Z,101512.17
2023-02-07T16:01:07.409Z,101516.58
2023-02-07T16:03:41.746Z,101518.39
2023-02-07T16:06:17.026Z,101518.28
2023-02-07T16:08:45.855Z,101525.67
2023-02-07T16:11:33.710Z,101524.60
2023-02-07T16:14:37.851Z,101523.23
2023-02-07T16:17:22.569Z,101523.98
2023-02-07T16:19:51.247Z,101521.05
2023-02-07T16:22:30.790Z,101520.52
2023-02-07T16:25:02.322Z,101527.27
2023-02-07T16:27:32.017Z,101521.87
2023-02-07T16:30:01.410Z,101525.02
2023-02-07T16:32:34.454Z,101526.33
2023-02-07T16:35:02.653Z,101527.91
2023-02-07T16:37:30.880Z,101529.00
2023-02-07T16:39:59.152Z,101527.45
2023-02-07T16:42:27.981Z,101528.86
2023-02-07T16:44:56.406Z,101533.61
2023-02-07T16:47:26.186Z,101533.96
2023-02-07T16:49:55.930Z,101537.90
2023-02-07T16:52:24.447Z,101533.06
2023-02-07T16:54:53.570Z,101540.63
2023-02-07T16:57:21.861Z,101536.46
2023-02-07T16:59:51.148Z,101539.41
2023-02-07T17:02:19.422Z,101542.73
2023-02-07T17:04:47.753Z,101543.75
2023-02-07T17:07:17.234Z,101547.10
2023-02-07T17:09:45.634Z,101548.38
2023-02-07T17:12:14.911Z,101552.16
2023-02-07T17:14:43.106Z,101549.73
2023-02-07T17:17:13.072Z,101547.98
2023-02-07T17:19:41.363Z,101551.42
2023-02-07T17:22:11.956Z,101551.27
2023-02-07T17:24:40.470Z,101553.96
2023-02-07T17:27:10.464Z,101558.27
2023-02-07T17:29:39.063Z,101561.38
2023-02-07T17:32:07.363Z,101562.30
2023-02-07T17:34:35.719Z,101566.86
2023-02-07T17:37:04.098Z,101568.85
2023-02-07T17:39:33.221Z,101566.78
2023-02-07T17:42:02.459Z,101572.03
2023-02-07T17:44:32.987Z,101573.92
2023-02-07T17:47:02.498Z,101577.88
2023-02-07T17:49:30.763Z,101578.32
2023-02-07T17:51:59.259Z,101582.19
2023-02-07T17:54:27.420Z,101587.09
2023-02-07T17:56:56.428Z,101591.50
2023-02-07T17:59:25.254Z,101596.03
2023-02-07T18:01:53.642Z,101599.81
2023-02-07T18:04:21.833Z,101606.17
2023-02-07T18:06:50.448Z,101609.40
2023-02-07T18:09:20.126Z,101610.35
2023-02-07T18:11:49.568Z,101613.33
2023-02-07T18:14:18.426Z,101613.98
2023-02-07T18:16:47.250Z,101613.76
2023-02-07T18:19:17.506Z,101614.08
2023-02-07T18:21:45.984Z,101609.47
2023-02-07T18:24:15.745Z,101609.80
2023-02-07T18:26:44.032Z,101609.77
2023-02-07T18:29:12.466Z,101610.09
2023-02-07T18:31:41.127Z,101610.73
2023-02-07T18:34:09.491Z,101614.24
2023-02-07T18:36:37.676Z,101612.96
2023-02-07T18:39:09.428Z,101615.20
2023-02-07T18:41:38.272Z,101619.72
2023-02-07T18:44:07.067Z,101617.90
2023-02-07T18:46:36.167Z,101618.72
2023-02-07T18:49:04.344Z,101622.82
2023-02-07T18:51:32.815Z,101622.09
2023-02-07T18:54:01.013Z,101629.39
2023-02-07T18:56:29.166Z,101627.38
2023-02-07T18:58:57.436Z,101628.23
2023-02-07T19:01:32.604Z,101630.56
2023-02-07T19:04:01.855Z,101635.48
2023-02-07T19:06:32.994Z,101638.40
2023-02-07T19:09:01.492Z,101640.64
2023-02-07T19:11:30.242Z,101644.98
2023-02-07T19:13:58.454Z,101642.61
2023-02-07T19:16:29.192Z,101644.34
2023-02-07T19:18:58.989Z,101646.73
2023-02-07T19:21:27.429Z,101646.10
2023-02-07T19:23:58.047Z,101647.16
2023-02-07T19:26:26.258Z,101650.03
2023-02-07T19:28:54.571Z,101648.37
2023-02-07T19:31:24.035Z,101646.86
2023-02-07T19:33:52.502Z,101643.23
2023-02-07T19:36:20.717Z,101642.77
2023-02-07T19:38:52.830Z,101641.59
2023-02-07T19:41:22.578Z,101646.40
2023-02-07T19:43:51.510Z,101645.20
2023-02-07T19:46:21.545Z,101644.17
2023-02-07T19:48:51.168Z,101645.29
2023-02-07T19:51:22.966Z,101645.71
2023-02-07T19:53:51.851Z,101643.37
2023-02-07T19:56:22.787Z,101644.34
2023-02-07T19:58:53.945Z,101646.98
2023-02-07T20:01:24.584Z,101648.90
2023-02-07T20:03:54.704Z,101647.11
2023-02-07T20:06:26.825Z,101653.20
2023-02-07T20:08:56.530Z,101650.48
2023-02-07T20:11:25.222Z,101658.24
2023-02-07T20:13:55.612Z,101658.38
2023-02-07T20:16:26.417Z,101660.34
2023-02-07T20:18:55.899Z,101661.78
2023-02-07T20:21:29.243Z,101658.70
2023-02-07T20:23:58.148Z,101664.97
2023-02-07T20:26:31.574Z,101664.88
2023-02-07T20:29:03.697Z,101666.70
2023-02-07T20:31:32.975Z,101665.23
2023-02-07T20:34:01.367Z,101669.09
2023-02-07T20:36:31.154Z,101669.27
2023-02-07T20:39:00.561Z,101674.94
2023-02-07T20:41:29.885Z,101677.77
2023-02-07T20:44:05.269Z,101676.02
2023-02-07T20:46:36.441Z,101679.39
2023-02-07T20:49:07.984Z,101677.78
2023-02-07T20:51:36.619Z,101676.48
2023-02-07T20:54:06.663Z,101675.98
2023-02-07T20:56:35.161Z,101680.00
2023-02-07T20:59:04.847Z,101677.23
2023-02-07T21:01:34.939Z,101685.74
2023-02-07T21:04:05.176Z,101687.54
2023-02-07T21:06:35.675Z,101687.31
2023-02-07T21:09:06.289Z,101683.68
2023-02-07T21:11:38.426Z,101686.61
2023-02-07T21:14:09.160Z,101691.17
2023-02-07T21:16:37.442Z,101688.33
2023-02-07T21:19:05.982Z,101687.02
2023-02-07T21:21:34.285Z,101691.69
2023-02-07T21:24:02.526Z,101689.23
2023-02-07T21:26:31.251Z,101692.79
2023-02-07T21:29:01.602Z,101694.58
2023-02-07T21:31:31.240Z,101694.42
2023-02-07T21:33:59.817Z,101689.33
2023-02-07T21:36:31.472Z,101689.48
2023-02-07T21:39:01.539Z,101694.97
2023-02-07T21:41:30.601Z,101696.23
2023-02-07T21:43:59.998Z,101698.84
2023-02-07T21:46:31.338Z,101699.38
2023-02-07T21:49:02.150Z,101700.06
2023-02-07T21:51:32.320Z,101705.97
2023-02-07T21:54:02.119Z,101705.91
2023-02-07T21:56:36.590Z,101708.14
2023-02-07T21:59:07.891Z,101710.14
2023-02-07T22:01:36.318Z,101711.14
2023-02-07T22:04:06.938Z,101714.40
2023-02-07T22:06:35.128Z,101713.60
2023-02-07T22:09:04.078Z,101717.95
2023-02-07T22:11:35.115Z,101716.09
2023-02-07T22:14:04.161Z,101719.02
2023-02-07T22:16:33.349Z,101716.30
2023-02-07T22:19:03.269Z,101725.05
2023-02-07T22:21:36.421Z,101723.91
2023-02-07T22:24:06.265Z,101724.67
2023-02-07T22:26:35.456Z,101723.67
2023-02-07T22:29:07.293Z,101721.96
2023-02-07T22:31:38.561Z,101721.14
2023-02-07T22:34:10.740Z,101719.79
2023-02-07T22:36:41.209Z,101716.70
2023-02-07T22:39:13.156Z,101712.39
2023-02-07T22:41:41.910Z,101713.21
2023-02-07T22:44:10.380Z,101712.63
2023-02-07T22:46:39.254Z,101713.13
2023-02-07T22:49:07.526Z,101716.63
2023-02-07T22:51:37.749Z,101721.25
2023-02-07T22:54:10.022Z,101723.54
2023-02-07T22:56:39.068Z,101724.27
2023-02-07T22:59:07.641Z,101730.52
2023-02-07T23:01:40.213Z,101732.55
2023-02-07T23:04:13.863Z,101731.92
2023-02-07T23:06:43.229Z,101733.41
2023-02-07T23:09:11.756Z,101735.29
2023-02-07T23:11:39.922Z,101740.88
2023-02-07T23:14:08.451Z,101738.66
2023-02-07T23:16:37.091Z,101738.91
2023-02-07T23:19:15.935Z,101738.80
2023-02-07T23:21:44.653Z,101739.45
2023-02-07T23:24:13.196Z,101741.05
2023-02-07T23:26:42.582Z,101739.56
2023-02-07T23:29:11.075Z,101736.25
2023-02-07T23:31:39.389Z,101738.25
2023-02-07T23:34:08.127Z,101741.63
2023-02-07T23:36:37.814Z,101743.92
2023-02-07T23:39:06.325Z,101745.51
2023-02-07T23:41:35.154Z,101747.13
2023-02-07T23:44:05.228Z,101750.54
2023-02-07T23:46:34.094Z,101748.07
2023-02-07T23:49:02.971Z,101748.44
2023-02-07T23:51:31.665Z,101745.61
2023-02-07T23:54:00.404Z,101744.39
2023-02-07T23:56:28.705Z,101741.73
2023-02-07T23:58:56.924Z,101747.04
